sensor_id;sensor_type;location;lat;lon;timestamp;pressure;altitude;pressure_sealevel;temperature;humidity
78855;BME280;68206;59.956;30.234;2023-09-18T00:00:53;101911.44;;;10.66;68.33
78855;BME280;68206;59.956;30.234;2023-09-18T00:03:23;101914.09;;;10.66;68.73
78855;BME280;68206;59.956;30.234;2023-09-18T00:05:53;101915.88;;;10.66;68.58
78855;BME280;68206;59.956;30.234;2023-09-18T00:08:22;101918.53;;;10.64;68.61
78855;BME280;68206;59.956;30.234;2023-09-18T00:10:52;101930.03;;;10.65;67.71
78855;BME280;68206;59.956;30.234;2023-09-18T00:13:21;101929.13;;;10.66;68.58
78855;BME280;68206;59.956;30.234;2023-09-18T00:15:54;101932.66;;;10.65;68.96
78855;BME280;68206;59.956;30.234;2023-09-18T00:18:22;101930.03;;;10.65;68.76
78855;BME280;68206;59.956;30.234;2023-09-18T00:20:51;101930.91;;;10.65;67.90
78855;BME280;68206;59.956;30.234;2023-09-18T00:23:21;101938.84;;;10.65;69.02
78855;BME280;68206;59.956;30.234;2023-09-18T00:25:50;101944.16;;;10.65;67.86
78855;BME280;68206;59.956;30.234;2023-09-18T00:28:18;101948.59;;;10.65;68.07
78855;BME280;68206;59.956;30.234;2023-09-18T00:30:49;101945.03;;;10.66;68.68
78855;BME280;68206;59.956;30.234;2023-09-18T00:33:18;101944.16;;;10.65;67.86
78855;BME280;68206;59.956;30.234;2023-09-18T00:35:47;101943.28;;;10.65;68.13
78855;BME280;68206;59.956;30.234;2023-09-18T00:38:15;101941.50;;;10.65;68.85
78855;BME280;68206;59.956;30.234;2023-09-18T00:40:45;101945.94;;;10.63;68.88
78855;BME280;68206;59.956;30.234;2023-09-18T00:43:14;101945.09;;;10.61;69.23
78855;BME280;68206;59.956;30.234;2023-09-18T00:45:44;101949.47;;;10.64;68.37
78855;BME280;68206;59.956;30.234;2023-09-18T00:48:14;101950.38;;;10.63;68.66
78855;BME280;68206;59.956;30.234;2023-09-18T00:50:44;101954.84;;;10.59;68.83
78855;BME280;68206;59.956;30.234;2023-09-18T00:53:15;101952.19;;;10.58;69.31
78855;BME280;68206;59.956;30.234;2023-09-18T00:55:46;101948.66;;;10.60;68.37
78855;BME280;68206;59.956;30.234;2023-09-18T00:58:15;101950.41;;;10.60;69.49
78855;BME280;68206;59.956;30.234;2023-09-18T01:00:45;101950.41;;;10.61;69.54
78855;BME280;68206;59.956;30.234;2023-09-18T01:03:14;101951.22;;;10.66;69.46
78855;BME280;68206;59.956;30.234;2023-09-18T01:05:45;101947.66;;;10.70;69.51
78855;BME280;68206;59.956;30.234;2023-09-18T01:08:14;101952.94;;;10.73;69.65
78855;BME280;68206;59.956;30.234;2023-09-18T01:10:52;101960.00;;;10.74;69.40
78855;BME280;68206;59.956;30.234;2023-09-18T01:13:27;101954.66;;;10.77;68.89
78855;BME280;68206;59.956;30.234;2023-09-18T01:16:01;101959.97;;;10.77;68.19
78855;BME280;68206;59.956;30.234;2023-09-18T01:18:31;101954.66;;;10.77;68.38
78855;BME280;68206;59.956;30.234;2023-09-18T01:20:59;101961.72;;;10.80;68.61
78855;BME280;68206;59.956;30.234;2023-09-18T01:23:29;101957.22;;;10.86;68.94
78855;BME280;68206;59.956;30.234;2023-09-18T01:25:57;101972.19;;;10.92;69.22
78855;BME280;68206;59.956;30.234;2023-09-18T01:28:25;101972.13;;;10.98;68.74
78855;BME280;68206;59.956;30.234;2023-09-18T01:30:54;101983.56;;;11.03;68.67
78855;BME280;68206;59.956;30.234;2023-09-18T01:33:23;101979.94;;;11.10;68.35
78855;BME280;68206;59.956;30.234;2023-09-18T01:35:53;101981.63;;;11.17;68.02
78855;BME280;68206;59.956;30.234;2023-09-18T01:38:23;101979.81;;;11.22;68.09
78855;BME280;68206;59.956;30.234;2023-09-18T01:40:54;101980.63;;;11.27;67.41
78855;BME280;68206;59.956;30.234;2023-09-18T01:43:25;101990.34;;;11.28;67.78
78855;BME280;68206;59.956;30.234;2023-09-18T01:45:54;101986.81;;;11.28;67.75
78855;BME280;68206;59.956;30.234;2023-09-18T01:48:23;101993.88;;;11.30;67.89
78855;BME280;68206;59.956;30.234;2023-09-18T01:50:52;101992.94;;;11.35;67.33
78855;BME280;68206;59.956;30.234;2023-09-18T01:53:20;101992.03;;;11.34;67.71
78855;BME280;68206;59.956;30.234;2023-09-18T01:55:48;101992.03;;;11.36;67.42
78855;BME280;68206;59.956;30.234;2023-09-18T01:58:18;101996.41;;;11.38;67.54
78855;BME280;68206;59.956;30.234;2023-09-18T02:00:47;101991.09;;;11.40;67.49
78855;BME280;68206;59.956;30.234;2023-09-18T02:03:15;101994.63;;;11.39;67.37
78855;BME280;68206;59.956;30.234;2023-09-18T02:06:05;101996.41;;;11.38;66.96
78855;BME280;68206;59.956;30.234;2023-09-18T02:08:34;102001.72;;;11.40;67.45
78855;BME280;68206;59.956;30.234;2023-09-18T02:11:02;102007.03;;;11.38;66.92
78855;BME280;68206;59.956;30.234;2023-09-18T02:13:33;102014.13;;;11.38;66.85
78855;BME280;68206;59.956;30.234;2023-09-18T02:16:01;102012.41;;;11.35;66.57
78855;BME280;68206;59.956;30.234;2023-09-18T02:18:30;102015.13;;;11.29;66.55
78855;BME280;68206;59.956;30.234;2023-09-18T02:20:58;102016.13;;;11.19;66.85
78855;BME280;68206;59.956;30.234;2023-09-18T02:23:26;102019.78;;;11.10;67.38
78855;BME280;68206;59.956;30.234;2023-09-18T02:26:15;102016.31;;;11.01;67.02
78855;BME280;68206;59.956;30.234;2023-09-18T02:28:44;102021.75;;;10.90;68.16
78855;BME280;68206;59.956;30.234;2023-09-18T02:31:13;102024.47;;;10.85;67.94
78855;BME280;68206;59.956;30.234;2023-09-18T02:33:43;102024.53;;;10.78;68.48
78855;BME280;68206;59.956;30.234;2023-09-18T02:36:11;102017.53;;;10.69;68.91
78855;BME280;68206;59.956;30.234;2023-09-18T02:38:39;102020.22;;;10.63;68.97
78855;BME280;68206;59.956;30.234;2023-09-18T02:41:07;102017.63;;;10.57;69.53
78855;BME280;68206;59.956;30.234;2023-09-18T02:43:36;102023.88;;;10.53;69.28
78855;BME280;68206;59.956;30.234;2023-09-18T02:46:06;102019.50;;;10.49;69.47
78855;BME280;68206;59.956;30.234;2023-09-18T02:48:35;102015.09;;;10.46;69.84
78855;BME280;68206;59.956;30.234;2023-09-18T02:51:03;102013.41;;;10.36;70.43
78855;BME280;68206;59.956;30.234;2023-09-18T02:53:32;102009.00;;;10.37;69.99
78855;BME280;68206;59.956;30.234;2023-09-18T02:56:00;102012.53;;;10.33;70.12
78855;BME280;68206;59.956;30.234;2023-09-18T02:58:28;102024.06;;;10.29;71.20
78855;BME280;68206;59.956;30.234;2023-09-18T03:00:57;102024.97;;;10.26;70.64
78855;BME280;68206;59.956;30.234;2023-09-18T03:03:29;102032.06;;;10.24;70.79
78855;BME280;68206;59.956;30.234;2023-09-18T03:06:02;102034.72;;;10.23;71.08
78855;BME280;68206;59.956;30.234;2023-09-18T03:08:32;102029.41;;;10.21;71.01
78855;BME280;68206;59.956;30.234;2023-09-18T03:11:00;102034.75;;;10.17;70.53
78855;BME280;68206;59.956;30.234;2023-09-18T03:13:30;102035.66;;;10.11;71.66
78855;BME280;68206;59.956;30.234;2023-09-18T03:15:59;102033.88;;;10.10;71.27
78855;BME280;68206;59.956;30.234;2023-09-18T03:18:29;102040.97;;;10.08;72.20
78855;BME280;68206;59.956;30.234;2023-09-18T03:20:57;102046.25;;;10.08;71.66
78855;BME280;68206;59.956;30.234;2023-09-18T03:23:27;102040.97;;;10.06;71.96
78855;BME280;68206;59.956;30.234;2023-09-18T03:25:55;102033.94;;;10.04;72.48
78855;BME280;68206;59.956;30.234;2023-09-18T03:28:23;102024.16;;;10.06;72.16
78855;BME280;68206;59.956;30.234;2023-09-18T03:30:52;102022.44;;;10.03;71.90
78855;BME280;68206;59.956;30.234;2023-09-18T03:33:23;102023.34;;;10.02;72.42
78855;BME280;68206;59.956;30.234;2023-09-18T03:35:53;102033.94;;;9.99;72.98
78855;BME280;68206;59.956;30.234;2023-09-18T03:38:27;102018.03;;;10.01;72.63
78855;BME280;68206;59.956;30.234;2023-09-18T03:40:59;102010.06;;;10.01;72.54
78855;BME280;68206;59.956;30.234;2023-09-18T03:43:28;102017.16;;;10.00;73.28
78855;BME280;68206;59.956;30.234;2023-09-18T03:46:03;102017.16;;;10.03;73.17
78855;BME280;68206;59.956;30.234;2023-09-18T03:48:35;102022.41;;;10.08;73.11
78855;BME280;68206;59.956;30.234;2023-09-18T03:51:06;102025.94;;;10.18;72.96
78855;BME280;68206;59.956;30.234;2023-09-18T03:53:35;102024.47;;;10.82;72.68
78855;BME280;68206;59.956;30.234;2023-09-18T03:56:03;102045.75;;;11.60;69.84
78855;BME280;68206;59.956;30.234;2023-09-18T03:58:32;102036.41;;;12.55;67.25
78855;BME280;68206;59.956;30.234;2023-09-18T04:01:03;102033.72;;;13.51;64.96
78855;BME280;68206;59.956;30.234;2023-09-18T04:03:31;102036.22;;;14.37;62.46
78855;BME280;68206;59.956;30.234;2023-09-18T04:05:59;102039.44;;;15.19;59.42
78855;BME280;68206;59.956;30.234;2023-09-18T04:08:30;102043.38;;;15.99;57.44
78855;BME280;68206;59.956;30.234;2023-09-18T04:11:00;102039.28;;;16.71;54.65
78855;BME280;68206;59.956;30.234;2023-09-18T04:13:31;102042.97;;;17.43;52.60
78855;BME280;68206;59.956;30.234;2023-09-18T04:16:01;102046.41;;;18.16;50.64
78855;BME280;68206;59.956;30.234;2023-09-18T04:18:31;102045.53;;;18.81;47.73
78855;BME280;68206;59.956;30.234;2023-09-18T04:20:59;102045.22;;;19.29;46.23
78855;BME280;68206;59.956;30.234;2023-09-18T04:23:28;102051.38;;;19.90;44.70
78855;BME280;68206;59.956;30.234;2023-09-18T04:25:58;102050.25;;;20.50;42.51
78855;BME280;68206;59.956;30.234;2023-09-18T04:28:26;102043.16;;;21.01;41.31
78855;BME280;68206;59.956;30.234;2023-09-18T04:30:55;102033.03;;;21.56;40.32
78855;BME280;68206;59.956;30.234;2023-09-18T04:33:24;102037.66;;;22.19;39.31
78855;BME280;68206;59.956;30.234;2023-09-18T04:35:56;102037.31;;;22.70;37.25
78855;BME280;68206;59.956;30.234;2023-09-18T04:38:24;102041.13;;;23.12;36.45
78855;BME280;68206;59.956;30.234;2023-09-18T04:40:59;102034.28;;;23.64;35.25
78855;BME280;68206;59.956;30.234;2023-09-18T04:43:28;102026.78;;;23.96;34.36
78855;BME280;68206;59.956;30.234;2023-09-18T04:45:59;102033.03;;;24.25;32.90
78855;BME280;68206;59.956;30.234;2023-09-18T04:48:29;102035.91;;;24.63;32.64
78855;BME280;68206;59.956;30.234;2023-09-18T04:50:57;102032.16;;;24.78;32.62
78855;BME280;68206;59.956;30.234;2023-09-18T04:53:27;102040.13;;;24.94;31.82
78855;BME280;68206;59.956;30.234;2023-09-18T04:55:56;102043.25;;;24.88;31.47
78855;BME280;68206;59.956;30.234;2023-09-18T04:58:26;102038.03;;;24.45;31.96
78855;BME280;68206;59.956;30.234;2023-09-18T05:00:55;102040.81;;;24.03;32.62
78855;BME280;68206;59.956;30.234;2023-09-18T05:03:23;102045.88;;;23.66;33.17
78855;BME280;68206;59.956;30.234;2023-09-18T05:05:53;102043.56;;;23.02;34.51
78855;BME280;68206;59.956;30.234;2023-09-18T05:08:22;102051.78;;;22.39;35.38
78855;BME280;68206;59.956;30.234;2023-09-18T05:10:50;102051.44;;;21.98;35.85
78855;BME280;68206;59.956;30.234;2023-09-18T05:13:19;102052.59;;;21.77;36.46
78855;BME280;68206;59.956;30.234;2023-09-18T05:15:48;102048.59;;;21.51;37.25
78855;BME280;68206;59.956;30.234;2023-09-18T05:18:16;102055.13;;;21.47;37.42
78855;BME280;68206;59.956;30.234;2023-09-18T05:20:45;102061.06;;;21.54;37.03
78855;BME280;68206;59.956;30.234;2023-09-18T05:23:13;102064.19;;;21.79;36.27
78855;BME280;68206;59.956;30.234;2023-09-18T05:25:45;102059.19;;;22.04;35.79
78855;BME280;68206;59.956;30.234;2023-09-18T05:28:13;102053.75;;;22.67;35.06
78855;BME280;68206;59.956;30.234;2023-09-18T05:30:41;102071.13;;;23.53;33.70
78855;BME280;68206;59.956;30.234;2023-09-18T05:33:11;102068.09;;;24.55;31.58
78855;BME280;68206;59.956;30.234;2023-09-18T05:35:42;102066.72;;;25.54;30.03
78855;BME280;68206;59.956;30.234;2023-09-18T05:38:12;102065.44;;;26.58;28.61
78855;BME280;68206;59.956;30.234;2023-09-18T05:40:41;102069.53;;;27.57;27.17
78855;BME280;68206;59.956;30.234;2023-09-18T05:43:10;102066.84;;;28.56;25.99
78855;BME280;68206;59.956;30.234;2023-09-18T05:45:38;102077.22;;;29.37;24.41
78855;BME280;68206;59.956;30.234;2023-09-18T05:48:07;102068.91;;;29.99;23.48
78855;BME280;68206;59.956;30.234;2023-09-18T05:50:38;102070.81;;;30.48;22.59
78855;BME280;68206;59.956;30.234;2023-09-18T05:53:08;102077.66;;;31.11;21.94
78855;BME280;68206;59.956;30.234;2023-09-18T05:55:36;102080.19;;;31.61;20.93
78855;BME280;68206;59.956;30.234;2023-09-18T05:58:04;102078.66;;;31.86;20.73
78855;BME280;68206;59.956;30.234;2023-09-18T06:00:34;102081.88;;;32.09;20.67
78855;BME280;68206;59.956;30.234;2023-09-18T06:03:04;102079.31;;;32.34;19.99
78855;BME280;68206;59.956;30.234;2023-09-18T06:05:33;102076.13;;;32.57;19.91
78855;BME280;68206;59.956;30.234;2023-09-18T06:08:04;102076.88;;;32.76;19.01
78855;BME280;68206;59.956;30.234;2023-09-18T06:10:33;102077.97;;;33.01;18.67
78855;BME280;68206;59.956;30.234;2023-09-18T06:13:01;102077.28;;;33.43;18.50
78855;BME280;68206;59.956;30.234;2023-09-18T06:15:32;102077.34;;;33.51;18.91
78855;BME280;68206;59.956;30.234;2023-09-18T06:18:00;102074.88;;;33.99;18.07
78855;BME280;68206;59.956;30.234;2023-09-18T06:20:29;102089.84;;;34.23;17.85
78855;BME280;68206;59.956;30.234;2023-09-18T06:22:57;102086.41;;;34.29;17.92
78855;BME280;68206;59.956;30.234;2023-09-18T06:25:27;102090.59;;;34.41;16.95
78855;BME280;68206;59.956;30.234;2023-09-18T06:27:55;102095.81;;;34.60;17.28
78855;BME280;68206;59.956;30.234;2023-09-18T06:30:23;102096.19;;;34.82;17.01
78855;BME280;68206;59.956;30.234;2023-09-18T06:32:52;102081.72;;;35.12;17.05
78855;BME280;68206;59.956;30.234;2023-09-18T06:35:21;102099.31;;;35.11;16.85
78855;BME280;68206;59.956;30.234;2023-09-18T06:37:49;102100.88;;;34.97;16.80
78855;BME280;68206;59.956;30.234;2023-09-18T06:40:18;102089.31;;;35.18;16.69
78855;BME280;68206;59.956;30.234;2023-09-18T06:42:48;102090.72;;;35.30;16.16
78855;BME280;68206;59.956;30.234;2023-09-18T06:45:17;102096.25;;;35.30;16.00
78855;BME280;68206;59.956;30.234;2023-09-18T06:47:45;102101.44;;;35.41;16.21
78855;BME280;68206;59.956;30.234;2023-09-18T06:50:30;102092.25;;;35.49;15.89
78855;BME280;68206;59.956;30.234;2023-09-18T06:53:07;102107.06;;;35.56;15.99
78855;BME280;68206;59.956;30.234;2023-09-18T06:55:37;102094.19;;;35.32;16.19
78855;BME280;68206;59.956;30.234;2023-09-18T06:58:06;102098.63;;;35.49;15.83
78855;BME280;68206;59.956;30.234;2023-09-18T07:00:35;102103.84;;;35.28;15.94
78855;BME280;68206;59.956;30.234;2023-09-18T07:03:04;102098.13;;;35.30;15.97
78855;BME280;68206;59.956;30.234;2023-09-18T07:05:33;102106.22;;;35.15;16.30
78855;BME280;68206;59.956;30.234;2023-09-18T07:08:01;102107.75;;;34.93;16.15
78855;BME280;68206;59.956;30.234;2023-09-18T07:10:32;102105.69;;;34.79;16.73
78855;BME280;68206;59.956;30.234;2023-09-18T07:13:00;102100.38;;;34.35;16.57
78855;BME280;68206;59.956;30.234;2023-09-18T07:15:31;102100.97;;;33.87;17.30
78855;BME280;68206;59.956;30.234;2023-09-18T07:17:59;102092.94;;;33.25;17.46
78855;BME280;68206;59.956;30.234;2023-09-18T07:20:27;102095.38;;;32.92;17.69
78855;BME280;68206;59.956;30.234;2023-09-18T07:22:57;102108.97;;;33.47;17.75
78855;BME280;68206;59.956;30.234;2023-09-18T07:25:25;102105.19;;;33.48;18.16
78855;BME280;68206;59.956;30.234;2023-09-18T07:27:54;102104.00;;;33.76;17.23
78855;BME280;68206;59.956;30.234;2023-09-18T07:30:22;102108.69;;;34.10;17.17
78855;BME280;68206;59.956;30.234;2023-09-18T07:32:55;102109.00;;;34.07;17.18
78855;BME280;68206;59.956;30.234;2023-09-18T07:35:25;102114.50;;;34.40;17.16
78855;BME280;68206;59.956;30.234;2023-09-18T07:37:53;102117.94;;;34.34;16.85
78855;BME280;68206;59.956;30.234;2023-09-18T07:40:21;102116.03;;;34.01;17.16
78855;BME280;68206;59.956;30.234;2023-09-18T07:42:49;102118.81;;;32.96;18.04
78855;BME280;68206;59.956;30.234;2023-09-18T07:45:18;102124.16;;;32.25;19.31
78855;BME280;68206;59.956;30.234;2023-09-18T07:47:46;102111.88;;;32.29;19.12
78855;BME280;68206;59.956;30.234;2023-09-18T07:50:16;102113.47;;;32.77;18.00
78855;BME280;68206;59.956;30.234;2023-09-18T07:52:46;102116.97;;;33.05;17.95
78855;BME280;68206;59.956;30.234;2023-09-18T07:55:14;102105.75;;;33.16;18.12
78855;BME280;68206;59.956;30.234;2023-09-18T07:57:42;102115.25;;;32.68;18.25
78855;BME280;68206;59.956;30.234;2023-09-18T08:00:12;102118.03;;;32.04;18.50
78855;BME280;68206;59.956;30.234;2023-09-18T08:02:42;102124.69;;;31.36;19.95
78855;BME280;68206;59.956;30.234;2023-09-18T08:05:11;102125.81;;;30.95;19.81
78855;BME280;68206;59.956;30.234;2023-09-18T08:07:42;102115.97;;;29.93;21.06
78855;BME280;68206;59.956;30.234;2023-09-18T08:10:11;102111.00;;;28.72;22.67
78855;BME280;68206;59.956;30.234;2023-09-18T08:12:39;102115.53;;;27.73;24.03
78855;BME280;68206;59.956;30.234;2023-09-18T08:15:08;102109.09;;;26.80;24.88
78855;BME280;68206;59.956;30.234;2023-09-18T08:17:37;102110.19;;;26.04;25.50
78855;BME280;68206;59.956;30.234;2023-09-18T08:20:08;102108.44;;;25.53;26.46
78855;BME280;68206;59.956;30.234;2023-09-18T08:22:41;102111.66;;;25.20;26.98
78855;BME280;68206;59.956;30.234;2023-09-18T08:25:10;102117.72;;;24.84;28.01
78855;BME280;68206;59.956;30.234;2023-09-18T08:27:39;102121.75;;;24.23;28.95
78855;BME280;68206;59.956;30.234;2023-09-18T08:30:10;102117.78;;;23.72;29.98
78855;BME280;68206;59.956;30.234;2023-09-18T08:32:39;102121.06;;;23.33;30.56
78855;BME280;68206;59.956;30.234;2023-09-18T08:35:08;102102.66;;;22.94;31.81
78855;BME280;68206;59.956;30.234;2023-09-18T08:37:37;102114.56;;;22.60;32.57
78855;BME280;68206;59.956;30.234;2023-09-18T08:40:09;102112.28;;;22.21;33.70
78855;BME280;68206;59.956;30.234;2023-09-18T08:42:39;102117.59;;;21.90;33.95
78855;BME280;68206;59.956;30.234;2023-09-18T08:45:09;102114.63;;;21.61;34.81
78855;BME280;68206;59.956;30.234;2023-09-18T08:47:39;102125.47;;;21.27;35.60
78855;BME280;68206;59.956;30.234;2023-09-18T08:50:09;102124.72;;;21.06;36.27
78855;BME280;68206;59.956;30.234;2023-09-18T08:52:37;102136.91;;;20.79;36.84
78855;BME280;68206;59.956;30.234;2023-09-18T08:55:08;102134.44;;;20.56;37.53
78855;BME280;68206;59.956;30.234;2023-09-18T08:57:38;102126.47;;;20.35;38.40
78855;BME280;68206;59.956;30.234;2023-09-18T09:00:08;102135.75;;;20.09;39.13
78855;BME280;68206;59.956;30.234;2023-09-18T09:02:39;102132.97;;;19.92;39.19
78855;BME280;68206;59.956;30.234;2023-09-18T09:05:07;102134.00;;;19.69;39.99
78855;BME280;68206;59.956;30.234;2023-09-18T09:07:35;102135.47;;;19.56;40.19
78855;BME280;68206;59.956;30.234;2023-09-18T09:10:04;102137.97;;;19.41;40.79
78855;BME280;68206;59.956;30.234;2023-09-18T09:12:52;102143.00;;;19.28;41.39
78855;BME280;68206;59.956;30.234;2023-09-18T09:15:22;102132.88;;;19.13;41.70
78855;BME280;68206;59.956;30.234;2023-09-18T09:17:52;102143.09;;;19.05;42.01
78855;BME280;68206;59.956;30.234;2023-09-18T09:20:22;102145.91;;;19.02;42.02
78855;BME280;68206;59.956;30.234;2023-09-18T09:22:50;102141.09;;;18.88;42.27
78855;BME280;68206;59.956;30.234;2023-09-18T09:25:24;102153.63;;;18.67;42.91
78855;BME280;68206;59.956;30.234;2023-09-18T09:27:55;102153.38;;;18.50;43.30
78855;BME280;68206;59.956;30.234;2023-09-18T09:30:25;102152.25;;;18.34;43.56
78855;BME280;68206;59.956;30.234;2023-09-18T09:32:56;102152.56;;;18.25;43.60
78855;BME280;68206;59.956;30.234;2023-09-18T09:35:26;102155.63;;;18.16;44.18
78855;BME280;68206;59.956;30.234;2023-09-18T09:37:57;102158.59;;;18.08;44.45
78855;BME280;68206;59.956;30.234;2023-09-18T09:40:27;102149.06;;;17.99;44.37
78855;BME280;68206;59.956;30.234;2023-09-18T09:42:58;102151.94;;;17.95;44.03
78855;BME280;68206;59.956;30.234;2023-09-18T09:45:32;102151.41;;;17.85;44.51
78855;BME280;68206;59.956;30.234;2023-09-18T09:48:04;102148.22;;;17.74;44.69
78855;BME280;68206;59.956;30.234;2023-09-18T09:50:44;102150.34;;;17.66;44.82
78855;BME280;68206;59.956;30.234;2023-09-18T09:53:12;102149.66;;;17.59;45.10
78855;BME280;68206;59.956;30.234;2023-09-18T09:55:41;102142.69;;;17.54;45.17
78855;BME280;68206;59.956;30.234;2023-09-18T09:58:11;102146.41;;;17.50;45.83
78855;BME280;68206;59.956;30.234;2023-09-18T10:00:43;102136.72;;;17.46;45.82
78855;BME280;68206;59.956;30.234;2023-09-18T10:03:14;102139.41;;;17.46;45.50
78855;BME280;68206;59.956;30.234;2023-09-18T10:05:45;102134.03;;;17.46;45.24
78855;BME280;68206;59.956;30.234;2023-09-18T10:08:17;102140.38;;;17.43;45.38
78855;BME280;68206;59.956;30.234;2023-09-18T10:10:47;102145.81;;;17.42;44.90
78855;BME280;68206;59.956;30.234;2023-09-18T10:13:20;102144.78;;;17.46;44.54
78855;BME280;68206;59.956;30.234;2023-09-18T10:15:50;102141.22;;;17.45;44.54
78855;BME280;68206;59.956;30.234;2023-09-18T10:18:26;102140.16;;;17.49;43.84
78855;BME280;68206;59.956;30.234;2023-09-18T10:21:03;102139.00;;;17.56;43.40
78855;BME280;68206;59.956;30.234;2023-09-18T10:23:41;102138.97;;;17.58;43.07
78855;BME280;68206;59.956;30.234;2023-09-18T10:26:18;102148.78;;;17.59;43.09
78855;BME280;68206;59.956;30.234;2023-09-18T10:28:53;102155.00;;;17.61;43.24
78855;BME280;68206;59.956;30.234;2023-09-18T10:31:26;102158.38;;;17.66;42.80
78855;BME280;68206;59.956;30.234;2023-09-18T10:33:58;102158.22;;;17.70;42.71
78855;BME280;68206;59.956;30.234;2023-09-18T10:36:28;102155.34;;;17.75;41.84
78855;BME280;68206;59.956;30.234;2023-09-18T10:39:01;102156.00;;;17.82;41.02
78855;BME280;68206;59.956;30.234;2023-09-18T10:41:36;102145.03;;;17.88;40.49
78855;BME280;68206;59.956;30.234;2023-09-18T10:44:06;102144.94;;;17.91;40.47
78855;BME280;68206;59.956;30.234;2023-09-18T10:46:35;102150.09;;;17.97;40.38
78855;BME280;68206;59.956;30.234;2023-09-18T10:49:04;102147.25;;;18.00;40.13
78855;BME280;68206;59.956;30.234;2023-09-18T10:51:32;102148.97;;;18.02;39.79
78855;BME280;68206;59.956;30.234;2023-09-18T10:54:01;102155.97;;;18.06;39.93
78855;BME280;68206;59.956;30.234;2023-09-18T10:56:30;102158.59;;;18.08;39.85
78855;BME280;68206;59.956;30.234;2023-09-18T10:59:00;102159.59;;;18.05;39.78
78855;BME280;68206;59.956;30.234;2023-09-18T11:01:32;102152.25;;;18.10;39.79
78855;BME280;68206;59.956;30.234;2023-09-18T11:04:02;102143.88;;;18.18;39.96
78855;BME280;68206;59.956;30.234;2023-09-18T11:07:03;102154.56;;;18.20;39.78
78855;BME280;68206;59.956;30.234;2023-09-18T11:09:42;102155.16;;;18.28;39.71
78855;BME280;68206;59.956;30.234;2023-09-18T11:12:11;102155.03;;;18.31;39.78
78855;BME280;68206;59.956;30.234;2023-09-18T11:14:44;102155.84;;;18.33;39.67
78855;BME280;68206;59.956;30.234;2023-09-18T11:17:34;102149.41;;;18.37;39.17
78855;BME280;68206;59.956;30.234;2023-09-18T11:20:05;102151.25;;;18.36;39.82
78855;BME280;68206;59.956;30.234;2023-09-18T11:22:36;102156.72;;;18.33;39.67
78855;BME280;68206;59.956;30.234;2023-09-18T11:25:38;102159.59;;;18.29;39.72
78855;BME280;68206;59.956;30.234;2023-09-18T11:28:13;102157.72;;;18.31;39.78
78855;BME280;68206;59.956;30.234;2023-09-18T11:30:49;102150.66;;;18.28;40.05
78855;BME280;68206;59.956;30.234;2023-09-18T11:33:32;102154.28;;;18.27;40.17
78855;BME280;68206;59.956;30.234;2023-09-18T11:36:04;102153.63;;;18.21;40.01
78855;BME280;68206;59.956;30.234;2023-09-18T11:38:51;102151.09;;;18.18;40.26
78855;BME280;68206;59.956;30.234;2023-09-18T11:41:26;102153.69;;;18.19;39.75
78855;BME280;68206;59.956;30.234;2023-09-18T11:46:58;102151.94;;;18.18;40.82
78855;BME280;68206;59.956;30.234;2023-09-18T11:49:29;102156.50;;;18.16;41.02
78855;BME280;68206;59.956;30.234;2023-09-18T11:51:59;102143.31;;;18.10;41.00
78855;BME280;68206;59.956;30.234;2023-09-18T11:54:28;102134.66;;;18.02;41.13
78855;BME280;68206;59.956;30.234;2023-09-18T11:56:57;102146.53;;;17.96;40.86
78855;BME280;68206;59.956;30.234;2023-09-18T11:59:38;102141.38;;;17.90;40.89
78855;BME280;68206;59.956;30.234;2023-09-18T12:02:12;102135.19;;;17.88;40.88
78855;BME280;68206;59.956;30.234;2023-09-18T12:04:49;102139.63;;;17.89;40.83
78855;BME280;68206;59.956;30.234;2023-09-18T12:07:17;102140.69;;;17.85;40.67
78855;BME280;68206;59.956;30.234;2023-09-18T12:09:47;102137.22;;;17.82;40.63
78855;BME280;68206;59.956;30.234;2023-09-18T12:12:16;102139.03;;;17.81;40.77
78855;BME280;68206;59.956;30.234;2023-09-18T12:14:45;102139.91;;;17.82;40.58
78855;BME280;68206;59.956;30.234;2023-09-18T12:17:16;102129.13;;;17.83;40.47
78855;BME280;68206;59.956;30.234;2023-09-18T12:19:53;102119.22;;;17.85;40.27
78855;BME280;68206;59.956;30.234;2023-09-18T12:22:26;102132.44;;;17.90;40.36
78855;BME280;68206;59.956;30.234;2023-09-18T12:25:08;102128.28;;;17.81;40.21
78855;BME280;68206;59.956;30.234;2023-09-18T12:27:42;102120.19;;;17.83;40.24
78855;BME280;68206;59.956;30.234;2023-09-18T12:30:11;102127.03;;;17.91;40.64
78855;BME280;68206;59.956;30.234;2023-09-18T12:32:42;102126.81;;;17.97;40.29
78855;BME280;68206;59.956;30.234;2023-09-18T12:35:13;102127.59;;;17.99;40.42
78855;BME280;68206;59.956;30.234;2023-09-18T12:37:42;102130.22;;;18.01;40.56
78855;BME280;68206;59.956;30.234;2023-09-18T12:40:21;102125.63;;;18.04;40.79
78855;BME280;68206;59.956;30.234;2023-09-18T12:42:50;102125.75;;;18.01;40.74
78855;BME280;68206;59.956;30.234;2023-09-18T12:45:21;102128.66;;;17.95;41.03
78855;BME280;68206;59.956;30.234;2023-09-18T12:47:49;102120.84;;;17.89;40.95
78855;BME280;68206;59.956;30.234;2023-09-18T12:50:19;102113.00;;;17.83;40.91
78855;BME280;68206;59.956;30.234;2023-09-18T12:52:48;102114.13;;;17.78;41.19
78855;BME280;68206;59.956;30.234;2023-09-18T12:55:25;102114.34;;;17.71;41.56
78855;BME280;68206;59.956;30.234;2023-09-18T12:57:54;102110.28;;;17.60;41.57
78855;BME280;68206;59.956;30.234;2023-09-18T13:00:23;102107.91;;;17.51;42.02